Pagina principale
METAR-TAF:

METAR-TAF

Aeroporti :

Žilina, Slovacchia

latitudine: 49-14N, longitudine: 018-36-49E, altezza: 312 m

Osservazione

Il bollettino è stato emesso 26 minuti fa, alle 14:30 UTC
Vento 7 kt da ovest/sud-ovest, variando fra sud-ovest e ovest/nord-ovest
Temperature 26°C
Umidità 42%
Pressione 1015 hPa
Visibilità 10 km o più
Poco nuvoloso ad un'altezza di 5200 ft

METAR: LZZI 171430Z 25007KT 230V290 9999 FEW052 26/12 Q1015

Ora: 16:56 (14:56 UTC)

Previsione

Il bollettino è stato emesso 41 minuti fa, alle 14:15 UTC
Previsione valida dal 17 alle 15 UTC al 18 alle 00 UTC
Vento 4 kt da ovest
Visibilità 10 km o più
Poco nuvoloso ad un'altezza di 5000 ft

TAF: LZZI 171415Z 1715/1800 27004KT 9999 FEW050

Osservazioni e previsioni meteorologiche di più di 4000 aeroporti (messaggi METAR e TAF).

Le stazioni disponibili sono rappresentate dai dischi gialli e rossi sulla carta.

Puntare il mouse per vedere il nome della stazione.

Clicca sopra per visualizzare le osservazioni e previsioni meteorologiche.

Per cambiare la mappa : fare clic sui pulsanti verdi con una croce nera per ingrandire, il pulsante verde con un trattino per diminuire, o sulla freccia verde per le mappe adiacenti.


METAR-TAF: